sensor_id;sensor_type;location;lat;lon;timestamp;pressure;altitude;pressure_sealevel;temperature;humidity
50093;BME280;35974;47.752;10.290;2023-04-19T00:00:12;94138.63;;;7.72;100.00
50093;BME280;35974;47.752;10.290;2023-04-19T00:02:39;94144.56;;;7.65;100.00
50093;BME280;35974;47.752;10.290;2023-04-19T00:05:08;94141.66;;;7.60;100.00
50093;BME280;35974;47.752;10.290;2023-04-19T00:07:35;94136.03;;;7.72;100.00
50093;BME280;35974;47.752;10.290;2023-04-19T00:10:01;94134.59;;;7.69;100.00
50093;BME280;35974;47.752;10.290;2023-04-19T00:12:31;94130.97;;;7.70;100.00
50093;BME280;35974;47.752;10.290;2023-04-19T00:14:58;94130.53;;;7.66;100.00
50093;BME280;35974;47.752;10.290;2023-04-19T00:17:24;94077.34;;;7.16;100.00
50093;BME280;35974;47.752;10.290;2023-04-19T00:19:50;94133.94;;;7.52;100.00
50093;BME280;35974;47.752;10.290;2023-04-19T00:22:34;94129.47;;;7.46;100.00
50093;BME280;35974;47.752;10.290;2023-04-19T00:25:01;94130.19;;;7.40;100.00
50093;BME280;35974;47.752;10.290;2023-04-19T00:27:27;94127.13;;;7.51;100.00
50093;BME280;35974;47.752;10.290;2023-04-19T00:29:54;94131.06;;;7.47;100.00
50093;BME280;35974;47.752;10.290;2023-04-19T00:32:20;94131.06;;;7.47;100.00
50093;BME280;35974;47.752;10.290;2023-04-19T00:34:46;94128.72;;;7.52;100.00
50093;BME280;35974;47.752;10.290;2023-04-19T00:37:13;94125.34;;;7.66;100.00
50093;BME280;35974;47.752;10.290;2023-04-19T00:39:39;94120.66;;;7.62;100.00
50093;BME280;35974;47.752;10.290;2023-04-19T00:42:06;94115.28;;;7.63;100.00
50093;BME280;35974;47.752;10.290;2023-04-19T00:44:32;94119.78;;;7.69;100.00
50093;BME280;35974;47.752;10.290;2023-04-19T00:46:59;94120.84;;;7.60;100.00
50093;BME280;35974;47.752;10.290;2023-04-19T00:49:27;94122.63;;;7.75;100.00
50093;BME280;35974;47.752;10.290;2023-04-19T00:51:54;94118.53;;;7.65;100.00
50093;BME280;35974;47.752;10.290;2023-04-19T00:54:20;94115.28;;;7.63;100.00
50093;BME280;35974;47.752;10.290;2023-04-19T00:56:47;94115.09;;;7.80;100.00
50093;BME280;35974;47.752;10.290;2023-04-19T00:59:13;94111.84;;;7.78;100.00
50093;BME280;35974;47.752;10.290;2023-04-19T01:01:40;94112.22;;;7.75;100.00
50093;BME280;35974;47.752;10.290;2023-04-19T01:04:23;94120.69;;;7.77;100.00
50093;BME280;35974;47.752;10.290;2023-04-19T01:06:49;94108.81;;;7.89;100.00
50093;BME280;35974;47.752;10.290;2023-04-19T01:09:16;94111.84;;;7.78;100.00
50093;BME280;35974;47.752;10.290;2023-04-19T01:11:42;94114.81;;;7.75;100.00
50093;BME280;35974;47.752;10.290;2023-04-19T01:14:09;94110.78;;;7.87;100.00
50093;BME280;35974;47.752;10.290;2023-04-19T01:19:21;94100.00;;;7.60;100.00
50093;BME280;35974;47.752;10.290;2023-04-19T01:21:48;94101.63;;;7.61;100.00
50093;BME280;35974;47.752;10.290;2023-04-19T01:24:15;94101.44;;;7.78;100.00
50093;BME280;35974;47.752;10.290;2023-04-19T01:26:41;94099.66;;;7.63;100.00
50093;BME280;35974;47.752;10.290;2023-04-19T01:29:08;94100.91;;;7.67;100.00
50093;BME280;35974;47.752;10.290;2023-04-19T01:31:34;94092.00;;;7.62;100.00
50093;BME280;35974;47.752;10.290;2023-04-19T01:34:00;94100.53;;;7.41;100.00
50093;BME280;35974;47.752;10.290;2023-04-19T01:36:27;94094.25;;;7.50;100.00
50093;BME280;35974;47.752;10.290;2023-04-19T01:38:53;94090.31;;;7.54;100.00
50093;BME280;35974;47.752;10.290;2023-04-19T01:41:19;94097.13;;;7.55;100.00
50093;BME280;35974;47.752;10.290;2023-04-19T01:43:47;94089.22;;;7.63;100.00
50093;BME280;35974;47.752;10.290;2023-04-19T01:46:14;94089.59;;;7.60;100.00
50093;BME280;35974;47.752;10.290;2023-04-19T01:48:40;94086.81;;;7.62;100.00
50093;BME280;35974;47.752;10.290;2023-04-19T01:51:07;94089.50;;;7.83;100.00
50093;BME280;35974;47.752;10.290;2023-04-19T01:53:33;94084.94;;;7.70;100.00
50093;BME280;35974;47.752;10.290;2023-04-19T01:55:59;94087.63;;;7.62;100.00
50093;BME280;35974;47.752;10.290;2023-04-19T01:58:26;94079.81;;;7.77;100.00
50093;BME280;35974;47.752;10.290;2023-04-19T02:00:52;94084.28;;;7.83;100.00
50093;BME280;35974;47.752;10.290;2023-04-19T02:03:22;94080.59;;;7.78;100.00
50093;BME280;35974;47.752;10.290;2023-04-19T02:05:48;94079.72;;;7.70;100.00
50093;BME280;35974;47.752;10.290;2023-04-19T02:08:15;94075.06;;;7.51;100.00
50093;BME280;35974;47.752;10.290;2023-04-19T02:10:41;94080.78;;;7.61;100.00
50093;BME280;35974;47.752;10.290;2023-04-19T02:13:08;94079.16;;;7.60;100.00
50093;BME280;35974;47.752;10.290;2023-04-19T02:15:35;94074.69;;;7.54;100.00
50093;BME280;35974;47.752;10.290;2023-04-19T02:18:02;94075.94;;;7.58;100.00
50093;BME280;35974;47.752;10.290;2023-04-19T02:20:34;94070.47;;;7.68;100.00
50093;BME280;35974;47.752;10.290;2023-04-19T02:23:00;94067.50;;;7.56;100.00
50093;BME280;35974;47.752;10.290;2023-04-19T02:25:27;94063.75;;;7.74;100.00
50093;BME280;35974;47.752;10.290;2023-04-19T02:27:53;94059.75;;;7.78;100.00
50093;BME280;35974;47.752;10.290;2023-04-19T02:30:19;94065.34;;;7.75;100.00
50093;BME280;35974;47.752;10.290;2023-04-19T02:32:46;94057.25;;;7.69;100.00
50093;BME280;35974;47.752;10.290;2023-04-19T02:35:13;94052.41;;;7.66;100.00
50093;BME280;35974;47.752;10.290;2023-04-19T02:37:39;94056.38;;;7.62;100.00
50093;BME280;35974;47.752;10.290;2023-04-19T02:40:07;94051.16;;;7.62;100.00
50093;BME280;35974;47.752;10.290;2023-04-19T02:42:34;94057.72;;;7.58;100.00
50093;BME280;35974;47.752;10.290;2023-04-19T02:45:01;94050.72;;;7.74;100.00
50093;BME280;35974;47.752;10.290;2023-04-19T02:50:18;94046.69;;;7.56;100.00
50093;BME280;35974;47.752;10.290;2023-04-19T02:52:45;94045.59;;;7.65;100.00
50093;BME280;35974;47.752;10.290;2023-04-19T02:55:27;94040.41;;;7.65;100.00
50093;BME280;35974;47.752;10.290;2023-04-19T02:57:54;94045.53;;;7.59;100.00
50093;BME280;35974;47.752;10.290;2023-04-19T03:00:20;94039.28;;;7.75;100.00
50093;BME280;35974;47.752;10.290;2023-04-19T03:02:50;94039.13;;;7.61;100.00
50093;BME280;35974;47.752;10.290;2023-04-19T03:05:17;94043.47;;;7.54;100.00
50093;BME280;35974;47.752;10.290;2023-04-19T03:07:43;94035.81;;;7.53;100.00
50093;BME280;35974;47.752;10.290;2023-04-19T03:10:10;94039.47;;;7.58;100.00
50093;BME280;35974;47.752;10.290;2023-04-19T03:12:36;94039.47;;;7.58;100.00
50093;BME280;35974;47.752;10.290;2023-04-19T03:15:03;94038.41;;;7.67;100.00
50093;BME280;35974;47.752;10.290;2023-04-19T03:17:29;94027.09;;;7.60;100.00
50093;BME280;35974;47.752;10.290;2023-04-19T03:19:55;94035.81;;;7.53;100.00
50093;BME280;35974;47.752;10.290;2023-04-19T03:22:22;94034.28;;;7.58;100.00
50093;BME280;35974;47.752;10.290;2023-04-19T03:24:48;94030.94;;;7.64;100.00
50093;BME280;35974;47.752;10.290;2023-04-19T03:27:15;94033.03;;;7.54;100.00
50093;BME280;35974;47.752;10.290;2023-04-19T03:29:41;94029.00;;;7.51;100.00
50093;BME280;35974;47.752;10.290;2023-04-19T03:32:08;94025.03;;;7.56;100.00
50093;BME280;35974;47.752;10.290;2023-04-19T03:34:34;94025.94;;;7.48;100.00
50093;BME280;35974;47.752;10.290;2023-04-19T03:37:00;94025.69;;;7.43;100.00
50093;BME280;35974;47.752;10.290;2023-04-19T03:39:27;94023.34;;;7.48;100.00
50093;BME280;35974;47.752;10.290;2023-04-19T03:41:53;94026.91;;;7.47;100.00
50093;BME280;35974;47.752;10.290;2023-04-19T03:44:19;94027.19;;;7.52;100.00
50093;BME280;35974;47.752;10.290;2023-04-19T03:46:46;94022.25;;;7.57;100.00
50093;BME280;35974;47.752;10.290;2023-04-19T03:49:13;94032.78;;;7.49;100.00
50093;BME280;35974;47.752;10.290;2023-04-19T03:51:40;94021.88;;;7.60;100.00
50093;BME280;35974;47.752;10.290;2023-04-19T03:54:06;94023.88;;;7.58;100.00
50093;BME280;35974;47.752;10.290;2023-04-19T03:56:32;94019.75;;;7.49;100.00
50093;BME280;35974;47.752;10.290;2023-04-19T03:58:59;94025.13;;;7.62;100.00
50093;BME280;35974;47.752;10.290;2023-04-19T04:01:25;94021.97;;;7.52;100.00
50093;BME280;35974;47.752;10.290;2023-04-19T04:03:52;94026.91;;;7.47;100.00
50093;BME280;35974;47.752;10.290;2023-04-19T04:06:18;94019.75;;;7.49;100.00
50093;BME280;35974;47.752;10.290;2023-04-19T04:08:45;94016.88;;;7.44;100.00
50093;BME280;35974;47.752;10.290;2023-04-19T04:11:12;94017.78;;;7.51;100.00
50093;BME280;35974;47.752;10.290;2023-04-19T04:13:38;94016.16;;;7.50;100.00
50093;BME280;35974;47.752;10.290;2023-04-19T04:16:04;94026.91;;;7.47;100.00
50093;BME280;35974;47.752;10.290;2023-04-19T04:18:31;94030.19;;;7.49;100.00
50093;BME280;35974;47.752;10.290;2023-04-19T04:26:09;94029.78;;;7.52;100.00
50093;BME280;35974;47.752;10.290;2023-04-19T04:28:43;94018.56;;;7.51;100.00
50093;BME280;35974;47.752;10.290;2023-04-19T04:34:07;94028.53;;;7.48;100.00
50093;BME280;35974;47.752;10.290;2023-04-19T04:36:44;94027.84;;;7.54;100.00
50093;BME280;35974;47.752;10.290;2023-04-19T04:39:11;94029.25;;;7.42;100.00
50093;BME280;35974;47.752;10.290;2023-04-19T04:41:38;94022.44;;;7.41;100.00
50093;BME280;35974;47.752;10.290;2023-04-19T04:44:08;94021.09;;;7.45;100.00
50093;BME280;35974;47.752;10.290;2023-04-19T04:47:01;94027.28;;;7.44;100.00
50093;BME280;35974;47.752;10.290;2023-04-19T04:49:29;94024.50;;;7.45;100.00
50093;BME280;35974;47.752;10.290;2023-04-19T04:51:57;94022.72;;;7.46;100.00
50093;BME280;35974;47.752;10.290;2023-04-19T04:54:25;94032.22;;;7.54;100.00
50093;BME280;35974;47.752;10.290;2023-04-19T04:56:52;94029.78;;;7.52;100.00
50093;BME280;35974;47.752;10.290;2023-04-19T04:59:21;94033.91;;;7.61;100.00
50093;BME280;35974;47.752;10.290;2023-04-19T05:01:48;94034.28;;;7.58;100.00
50093;BME280;35974;47.752;10.290;2023-04-19T05:04:15;94030.63;;;7.53;100.00
50093;BME280;35974;47.752;10.290;2023-04-19T05:06:50;94029.69;;;7.60;100.00
50093;BME280;35974;47.752;10.290;2023-04-19T05:09:16;94027.84;;;7.54;100.00
50093;BME280;35974;47.752;10.290;2023-04-19T05:11:46;94027.84;;;7.54;100.00
50093;BME280;35974;47.752;10.290;2023-04-19T05:14:13;94030.69;;;7.59;100.00
50093;BME280;35974;47.752;10.290;2023-04-19T05:16:42;94036.88;;;7.58;100.00
50093;BME280;35974;47.752;10.290;2023-04-19T05:19:09;94031.41;;;7.53;100.00
50093;BME280;35974;47.752;10.290;2023-04-19T05:21:35;94029.06;;;7.58;100.00
50093;BME280;35974;47.752;10.290;2023-04-19T05:24:01;94024.59;;;7.52;100.00
50093;BME280;35974;47.752;10.290;2023-04-19T05:26:28;94026.66;;;7.57;100.00
50093;BME280;35974;47.752;10.290;2023-04-19T05:28:54;94029.44;;;7.55;100.00
50093;BME280;35974;47.752;10.290;2023-04-19T05:31:21;94033.03;;;7.54;100.00
50093;BME280;35974;47.752;10.290;2023-04-19T05:33:58;94031.84;;;7.57;100.00
50093;BME280;35974;47.752;10.290;2023-04-19T05:36:25;94032.69;;;7.57;100.00
50093;BME280;35974;47.752;10.290;2023-04-19T05:38:52;94021.88;;;7.60;100.00
50093;BME280;35974;47.752;10.290;2023-04-19T05:41:19;94026.72;;;7.63;100.00
50093;BME280;35974;47.752;10.290;2023-04-19T05:43:45;94032.84;;;7.70;100.00
50093;BME280;35974;47.752;10.290;2023-04-19T05:46:23;94031.72;;;7.80;100.00
50093;BME280;35974;47.752;10.290;2023-04-19T05:48:49;94031.22;;;7.69;100.00
50093;BME280;35974;47.752;10.290;2023-04-19T05:51:25;94038.06;;;7.70;100.00
50093;BME280;35974;47.752;10.290;2023-04-19T05:53:53;94037.31;;;7.62;100.00
50093;BME280;35974;47.752;10.290;2023-04-19T05:56:22;94036.06;;;7.73;100.00
50093;BME280;35974;47.752;10.290;2023-04-19T05:58:48;94046.47;;;7.73;100.00
50093;BME280;35974;47.752;10.290;2023-04-19T06:01:15;94042.72;;;7.60;100.00
50093;BME280;35974;47.752;10.290;2023-04-19T06:03:41;94033.91;;;7.61;100.00
50093;BME280;35974;47.752;10.290;2023-04-19T06:06:08;94038.78;;;7.64;100.00
50093;BME280;35974;47.752;10.290;2023-04-19T06:08:35;94035.91;;;7.59;100.00
50093;BME280;35974;47.752;10.290;2023-04-19T06:11:10;94033.13;;;7.61;100.00
50093;BME280;35974;47.752;10.290;2023-04-19T06:13:54;94037.59;;;7.67;100.00
50093;BME280;35974;47.752;10.290;2023-04-19T06:16:20;94036.94;;;7.80;100.00
50093;BME280;35974;47.752;10.290;2023-04-19T06:18:48;94040.91;;;7.76;100.00
50093;BME280;35974;47.752;10.290;2023-04-19T06:21:15;94046.47;;;7.73;100.00
50093;BME280;35974;47.752;10.290;2023-04-19T06:23:42;94045.75;;;7.79;100.00
50093;BME280;35974;47.752;10.290;2023-04-19T06:26:08;94043.44;;;7.69;100.00
50093;BME280;35974;47.752;10.290;2023-04-19T06:28:34;94041.28;;;7.73;100.00
50093;BME280;35974;47.752;10.290;2023-04-19T06:31:01;94044.50;;;7.75;100.00
50093;BME280;35974;47.752;10.290;2023-04-19T06:33:27;94041.88;;;7.75;100.00
50093;BME280;35974;47.752;10.290;2023-04-19T06:36:00;94040.56;;;7.79;100.00
50093;BME280;35974;47.752;10.290;2023-04-19T06:38:28;94049.59;;;7.83;100.00
50093;BME280;35974;47.752;10.290;2023-04-19T06:40:54;94046.63;;;7.86;100.00
50093;BME280;35974;47.752;10.290;2023-04-19T06:43:21;94043.06;;;7.87;100.00
50093;BME280;35974;47.752;10.290;2023-04-19T06:45:47;94044.28;;;7.91;100.00
50093;BME280;35974;47.752;10.290;2023-04-19T06:48:21;94041.97;;;7.96;100.00
50093;BME280;35974;47.752;10.290;2023-04-19T06:50:47;94037.25;;;8.06;100.00
50093;BME280;35974;47.752;10.290;2023-04-19T06:53:14;94042.81;;;8.03;100.00
50093;BME280;35974;47.752;10.290;2023-04-19T06:55:40;94035.25;;;8.09;100.00
50093;BME280;35974;47.752;10.290;2023-04-19T06:58:06;94042.97;;;8.17;100.00
50093;BME280;35974;47.752;10.290;2023-04-19T07:00:36;94041.72;;;8.13;100.00
50093;BME280;35974;47.752;10.290;2023-04-19T07:03:02;94045.03;;;8.21;100.00
50093;BME280;35974;47.752;10.290;2023-04-19T07:05:29;94040.59;;;8.22;100.00
50093;BME280;35974;47.752;10.290;2023-04-19T07:07:56;94041.19;;;8.39;100.00
50093;BME280;35974;47.752;10.290;2023-04-19T07:10:23;94033.06;;;8.27;100.00
50093;BME280;35974;47.752;10.290;2023-04-19T07:12:49;94035.56;;;8.35;100.00
50093;BME280;35974;47.752;10.290;2023-04-19T07:15:16;94035.47;;;8.43;100.00
50093;BME280;35974;47.752;10.290;2023-04-19T07:17:42;94040.31;;;8.32;100.00
50093;BME280;35974;47.752;10.290;2023-04-19T07:20:09;94036.06;;;8.46;100.00
50093;BME280;35974;47.752;10.290;2023-04-19T07:22:36;94030.97;;;8.59;100.00
50093;BME280;35974;47.752;10.290;2023-04-19T07:25:02;94038.91;;;8.51;100.00
50093;BME280;35974;47.752;10.290;2023-04-19T07:27:29;94033.09;;;8.49;100.00
50093;BME280;35974;47.752;10.290;2023-04-19T07:29:55;94029.56;;;8.41;100.00
50093;BME280;35974;47.752;10.290;2023-04-19T07:32:21;94038.91;;;8.51;100.00
50093;BME280;35974;47.752;10.290;2023-04-19T07:34:48;94034.31;;;8.53;100.00
50093;BME280;35974;47.752;10.290;2023-04-19T07:37:16;94027.94;;;8.84;100.00
50093;BME280;35974;47.752;10.290;2023-04-19T07:39:42;94030.47;;;8.49;100.00
50093;BME280;35974;47.752;10.290;2023-04-19T07:42:09;94028.50;;;8.51;100.00
50093;BME280;35974;47.752;10.290;2023-04-19T07:44:35;94028.22;;;8.67;100.00
50093;BME280;35974;47.752;10.290;2023-04-19T07:47:02;94035.13;;;8.75;100.00
50093;BME280;35974;47.752;10.290;2023-04-19T07:49:29;94029.94;;;8.82;100.00
50093;BME280;35974;47.752;10.290;2023-04-19T07:51:59;94032.47;;;8.96;100.00
50093;BME280;35974;47.752;10.290;2023-04-19T07:54:26;94024.53;;;9.11;100.00
50093;BME280;35974;47.752;10.290;2023-04-19T07:56:53;94024.78;;;8.88;100.00
50093;BME280;35974;47.752;10.290;2023-04-19T07:59:19;94023.78;;;8.89;100.00
50093;BME280;35974;47.752;10.290;2023-04-19T08:01:45;94018.91;;;8.79;100.00
50093;BME280;35974;47.752;10.290;2023-04-19T08:04:12;94024.16;;;8.58;100.00
50093;BME280;35974;47.752;10.290;2023-04-19T08:06:38;94025.19;;;8.42;100.00
50093;BME280;35974;47.752;10.290;2023-04-19T08:09:05;94019.31;;;8.55;100.00
50093;BME280;35974;47.752;10.290;2023-04-19T08:11:33;94015.69;;;8.77;100.00
50093;BME280;35974;47.752;10.290;2023-04-19T08:13:59;94018.09;;;8.79;100.00
50093;BME280;35974;47.752;10.290;2023-04-19T08:16:40;94010.41;;;8.99;100.00
50093;BME280;35974;47.752;10.290;2023-04-19T08:19:26;94010.69;;;8.83;100.00
50093;BME280;35974;47.752;10.290;2023-04-19T08:21:52;94012.66;;;9.02;100.00
50093;BME280;35974;47.752;10.290;2023-04-19T08:24:19;94012.84;;;9.01;100.00
50093;BME280;35974;47.752;10.290;2023-04-19T08:26:47;94010.41;;;8.99;100.00
50093;BME280;35974;47.752;10.290;2023-04-19T08:29:19;94019.22;;;8.98;100.00
50093;BME280;35974;47.752;10.290;2023-04-19T08:31:45;94012.97;;;9.21;100.00
50093;BME280;35974;47.752;10.290;2023-04-19T08:34:12;94011.28;;;9.13;100.00
50093;BME280;35974;47.752;10.290;2023-04-19T08:36:38;94018.25;;;9.34;100.00
50093;BME280;35974;47.752;10.290;2023-04-19T08:39:17;94015.09;;;9.45;100.00
50093;BME280;35974;47.752;10.290;2023-04-19T08:41:57;94018.34;;;9.47;100.00
50093;BME280;35974;47.752;10.290;2023-04-19T08:44:36;94021.13;;;9.39;100.00
50093;BME280;35974;47.752;10.290;2023-04-19T08:47:24;94018.03;;;9.29;100.00
50093;BME280;35974;47.752;10.290;2023-04-19T08:49:59;94015.53;;;8.86;100.00
50093;BME280;35974;47.752;10.290;2023-04-19T08:52:42;94009.97;;;8.67;100.00
50093;BME280;35974;47.752;10.290;2023-04-19T08:55:19;94011.34;;;8.63;100.00
50093;BME280;35974;47.752;10.290;2023-04-19T08:57:46;94016.06;;;8.53;100.00
50093;BME280;35974;47.752;10.290;2023-04-19T09:00:12;94012.09;;;8.57;100.00
50093;BME280;35974;47.752;10.290;2023-04-19T09:02:45;94013.44;;;8.31;100.00
50093;BME280;35974;47.752;10.290;2023-04-19T09:05:14;94015.56;;;8.21;100.00
50093;BME280;35974;47.752;10.290;2023-04-19T09:07:41;94006.28;;;8.18;100.00
50093;BME280;35974;47.752;10.290;2023-04-19T09:10:19;94005.25;;;8.13;100.00
50093;BME280;35974;47.752;10.290;2023-04-19T09:13:02;94004.72;;;8.02;100.00
50093;BME280;35974;47.752;10.290;2023-04-19T09:15:38;94013.81;;;8.06;100.00
50093;BME280;35974;47.752;10.290;2023-04-19T09:18:07;94006.66;;;8.15;100.00
50093;BME280;35974;47.752;10.290;2023-04-19T09:20:35;93999.25;;;7.97;100.00
50093;BME280;35974;47.752;10.290;2023-04-19T09:23:03;94008.38;;;7.72;100.00
50093;BME280;35974;47.752;10.290;2023-04-19T09:25:31;94010.53;;;7.83;100.00
50093;BME280;35974;47.752;10.290;2023-04-19T09:28:17;94000.09;;;7.83;100.00
50093;BME280;35974;47.752;10.290;2023-04-19T09:30:44;93993.94;;;8.05;100.00
50093;BME280;35974;47.752;10.290;2023-04-19T09:33:32;93989.59;;;8.13;100.00
50093;BME280;35974;47.752;10.290;2023-04-19T09:35:59;93987.97;;;8.12;100.00
50093;BME280;35974;47.752;10.290;2023-04-19T09:38:26;93990.84;;;8.17;100.00
50093;BME280;35974;47.752;10.290;2023-04-19T09:40:53;93982.81;;;8.55;100.00
50093;BME280;35974;47.752;10.290;2023-04-19T09:43:30;93984.53;;;8.69;100.00
50093;BME280;35974;47.752;10.290;2023-04-19T09:46:00;93985.97;;;8.78;100.00
50093;BME280;35974;47.752;10.290;2023-04-19T09:48:26;93983.75;;;8.75;100.00
50093;BME280;35974;47.752;10.290;2023-04-19T09:50:57;93980.06;;;8.63;100.00
50093;BME280;35974;47.752;10.290;2023-04-19T09:53:31;93972.84;;;8.65;100.00
50093;BME280;35974;47.752;10.290;2023-04-19T09:56:00;93974.47;;;8.66;100.00
50093;BME280;35974;47.752;10.290;2023-04-19T09:58:29;93975.69;;;8.70;100.00
50093;BME280;35974;47.752;10.290;2023-04-19T10:00:58;93968.28;;;9.02;100.00
50093;BME280;35974;47.752;10.290;2023-04-19T10:03:42;93970.94;;;9.09;100.00
50093;BME280;35974;47.752;10.290;2023-04-19T10:06:10;93968.47;;;9.42;100.00
50093;BME280;35974;47.752;10.290;2023-04-19T10:08:59;93961.06;;;9.39;100.00
50093;BME280;35974;47.752;10.290;2023-04-19T10:11:28;93968.78;;;9.26;100.00
50093;BME280;35974;47.752;10.290;2023-04-19T10:13:57;93963.59;;;9.32;100.00
50093;BME280;35974;47.752;10.290;2023-04-19T10:16:25;93966.44;;;9.31;100.00
50093;BME280;35974;47.752;10.290;2023-04-19T10:18:51;93960.03;;;9.40;100.00
50093;BME280;35974;47.752;10.290;2023-04-19T10:21:18;93964.09;;;9.49;100.00
50093;BME280;35974;47.752;10.290;2023-04-19T10:23:45;93954.25;;;9.51;100.00
50093;BME280;35974;47.752;10.290;2023-04-19T10:26:11;93962.47;;;9.48;100.00
50093;BME280;35974;47.752;10.290;2023-04-19T10:31:44;93956.53;;;9.68;100.00
50093;BME280;35974;47.752;10.290;2023-04-19T10:34:35;93957.75;;;9.72;100.00
50093;BME280;35974;47.752;10.290;2023-04-19T10:39:54;93947.50;;;9.77;100.00
50093;BME280;35974;47.752;10.290;2023-04-19T10:48:04;93941.94;;;10.07;100.00
50093;BME280;35974;47.752;10.290;2023-04-19T10:50:56;93936.47;;;9.82;100.00
50093;BME280;35974;47.752;10.290;2023-04-19T10:56:02;93936.81;;;9.59;100.00
50093;BME280;35974;47.752;10.290;2023-04-19T10:58:31;93925.91;;;9.48;100.00
50093;BME280;35974;47.752;10.290;2023-04-19T11:06:57;93926.81;;;9.82;100.00
50093;BME280;35974;47.752;10.290;2023-04-19T11:12:06;93919.16;;;9.74;100.00
50093;BME280;35974;47.752;10.290;2023-04-19T11:14:45;93914.34;;;9.84;100.00
50093;BME280;35974;47.752;10.290;2023-04-19T11:19:54;93907.03;;;9.46;100.00
50093;BME280;35974;47.752;10.290;2023-04-19T11:27:48;93901.47;;;9.76;100.00
50093;BME280;35974;47.752;10.290;2023-04-19T11:30:16;93897.88;;;9.90;100.00
50093;BME280;35974;47.752;10.290;2023-04-19T11:32:45;93900.66;;;9.69;100.00
50093;BME280;35974;47.752;10.290;2023-04-19T11:35:12;93894.56;;;9.48;100.00
50093;BME280;35974;47.752;10.290;2023-04-19T11:37:39;93897.53;;;9.32;100.00
50093;BME280;35974;47.752;10.290;2023-04-19T11:40:05;93886.00;;;9.13;100.00
50093;BME280;35974;47.752;10.290;2023-04-19T11:42:32;93885.41;;;9.18;100.00
50093;BME280;35974;47.752;10.290;2023-04-19T11:44:59;93890.09;;;9.29;100.00
50093;BME280;35974;47.752;10.290;2023-04-19T11:47:25;93885.91;;;9.41;100.00
50093;BME280;35974;47.752;10.290;2023-04-19T11:52:49;93880.28;;;9.38;100.00
50093;BME280;35974;47.752;10.290;2023-04-19T11:55:19;93886.81;;;9.13;100.00
50093;BME280;35974;47.752;10.290;2023-04-19T11:57:45;93877.66;;;9.31;100.00
50093;BME280;35974;47.752;10.290;2023-04-19T12:00:13;93872.69;;;9.49;100.00
50093;BME280;35974;47.752;10.290;2023-04-19T12:02:43;93870.88;;;9.57;100.00
50093;BME280;35974;47.752;10.290;2023-04-19T12:05:11;93874.53;;;9.69;100.00
50093;BME280;35974;47.752;10.290;2023-04-19T12:10:29;93870.81;;;9.30;100.00
50093;BME280;35974;47.752;10.290;2023-04-19T12:12:56;93869.69;;;9.04;100.00
50093;BME280;35974;47.752;10.290;2023-04-19T12:15:22;93879.91;;;8.99;100.00
50093;BME280;35974;47.752;10.290;2023-04-19T12:17:58;93869.16;;;9.15;100.00
50093;BME280;35974;47.752;10.290;2023-04-19T12:22:54;93865.25;;;9.46;100.00
50093;BME280;35974;47.752;10.290;2023-04-19T12:25:21;93869.28;;;9.56;100.00
50093;BME280;35974;47.752;10.290;2023-04-19T12:27:47;93865.59;;;9.30;100.00
50093;BME280;35974;47.752;10.290;2023-04-19T12:30:13;93863.00;;;9.43;100.00
50093;BME280;35974;47.752;10.290;2023-04-19T12:32:40;93867.25;;;9.44;100.00
50093;BME280;35974;47.752;10.290;2023-04-19T12:35:06;93864.50;;;9.79;100.00
50093;BME280;35974;47.752;10.290;2023-04-19T12:37:42;93859.25;;;9.66;100.00
50093;BME280;35974;47.752;10.290;2023-04-19T12:45:35;93849.63;;;10.26;100.00
50093;BME280;35974;47.752;10.290;2023-04-19T12:50:45;93840.41;;;10.17;100.00
50093;BME280;35974;47.752;10.290;2023-04-19T12:53:25;93835.56;;;10.41;100.00
50093;BME280;35974;47.752;10.290;2023-04-19T12:55:52;93843.97;;;10.70;100.00
50093;BME280;35974;47.752;10.290;2023-04-19T12:58:26;93833.91;;;10.67;100.00
50093;BME280;35974;47.752;10.290;2023-04-19T13:00:53;93832.34;;;10.52;100.00
50093;BME280;35974;47.752;10.290;2023-04-19T13:03:19;93831.91;;;10.69;100.00
50093;BME280;35974;47.752;10.290;2023-04-19T13:05:57;93824.41;;;10.92;100.00
50093;BME280;35974;47.752;10.290;2023-04-19T13:08:24;93824.91;;;11.14;100.00
50093;BME280;35974;47.752;10.290;2023-04-19T13:11:08;93817.28;;;11.06;100.00
50093;BME280;35974;47.752;10.290;2023-04-19T13:13:35;93819.66;;;11.14;100.00
50093;BME280;35974;47.752;10.290;2023-04-19T13:16:03;93816.47;;;11.06;100.00
50093;BME280;35974;47.752;10.290;2023-04-19T13:18:41;93809.19;;;11.21;100.00
50093;BME280;35974;47.752;10.290;2023-04-19T13:21:11;93803.31;;;11.58;100.00
50093;BME280;35974;47.752;10.290;2023-04-19T13:23:51;93799.56;;;11.79;100.00
50093;BME280;35974;47.752;10.290;2023-04-19T13:26:18;93792.31;;;11.49;100.00
50093;BME280;35974;47.752;10.290;2023-04-19T13:28:44;93793.88;;;11.82;99.92
50093;BME280;35974;47.752;10.290;2023-04-19T13:31:15;93791.78;;;11.97;99.81
50093;BME280;35974;47.752;10.290;2023-04-19T13:33:45;93781.16;;;11.60;100.00
50093;BME280;35974;47.752;10.290;2023-04-19T13:36:12;93789.91;;;11.72;100.00
50093;BME280;35974;47.752;10.290;2023-04-19T13:38:38;93778.16;;;11.82;98.06
50093;BME280;35974;47.752;10.290;2023-04-19T13:41:04;93781.38;;;11.84;96.06
50093;BME280;35974;47.752;10.290;2023-04-19T15:10:01;93745.34;;;8.00;100.00
50093;BME280;35974;47.752;10.290;2023-04-19T15:15:01;93742.59;;;7.51;100.00
50093;BME280;35974;47.752;10.290;2023-04-19T15:17:29;93742.41;;;7.31;100.00
50093;BME280;35974;47.752;10.290;2023-04-19T15:19:55;93743.22;;;7.32;100.00
50093;BME280;35974;47.752;10.290;2023-04-19T15:22:23;93743.66;;;7.36;100.00
50093;BME280;35974;47.752;10.290;2023-04-19T15:24:49;93748.22;;;6.90;100.00
50093;BME280;35974;47.752;10.290;2023-04-19T15:27:16;93750.16;;;7.03;100.00